Terminal Aerodrome Forecast
Issued by NWS Corpus Christi, TX

Home | Current Version | Previous Version | Text Only | Print | Product List | Glossary On
Versions: 1 2 3 4 5 6 7 8 9 10 11 12 13 14 15 16 17 18 19 20 21
000
FTUS44 KCRP 030531
TAFVCT
TAF
KVCT 030531Z 0306/0406 VRB04KT P6SM SCT018
     FM030900 05003KT P6SM VCSH SCT030
      TEMPO 0310/0313 5SM BR
     FM031400 08004KT P6SM VCSH BKN035
     FM032200 14012KT P6SM SCT035
     FM040100 VRB04KT P6SM FEW035=

USA.gov is the U.S. government's official web portal to all federal, state and local government web resources and services.